createdAt,value
2022-08-08T00:00:55.558Z,1013.22
2022-08-08T00:04:28.019Z,1013.11
2022-08-08T00:09:33.176Z,1012.98
2022-08-08T00:14:56.938Z,1012.92
2022-08-08T00:19:37.921Z,1012.87
2022-08-08T00:24:42.085Z,1012.84
2022-08-08T00:29:46.960Z,1012.80
2022-08-08T00:34:50.407Z,1012.78
2022-08-08T00:41:09.056Z,1012.75
2022-08-08T00:44:59.034Z,1012.70
2022-08-08T00:50:02.863Z,1012.71
2022-08-08T00:55:07.021Z,1012.67
2022-08-08T01:00:09.357Z,1012.68
2022-08-08T01:05:42.594Z,1012.77
2022-08-08T01:10:17.621Z,1012.76
2022-08-08T01:15:26.123Z,1012.81
2022-08-08T01:20:25.948Z,1012.78
2022-08-08T01:25:40.283Z,1012.74
2022-08-08T01:30:34.251Z,1012.85
2022-08-08T01:35:40.537Z,1012.79
2022-08-08T01:40:42.617Z,1012.83
2022-08-08T01:45:54.217Z,1012.75
2022-08-08T01:50:50.942Z,1012.67
2022-08-08T01:56:28.110Z,1012.70
2022-08-08T02:00:59.344Z,1012.81
2022-08-08T02:06:03.421Z,1012.84
2022-08-08T02:11:07.560Z,1012.79
2022-08-08T02:16:21.259Z,1012.81
2022-08-08T02:21:18.258Z,1012.85
2022-08-08T02:26:20.044Z,1012.81
2022-08-08T02:31:58.648Z,1012.79
2022-08-08T02:36:28.553Z,1012.77
2022-08-08T02:41:58.723Z,1012.69
2022-08-08T02:46:34.823Z,1012.73
2022-08-08T02:51:55.155Z,1012.64
2022-08-08T02:56:41.229Z,1012.77
2022-08-08T03:01:50.275Z,1012.77
2022-08-08T03:06:47.670Z,1012.73
2022-08-08T03:12:02.096Z,1012.83
2022-08-08T03:16:56.004Z,1012.89
2022-08-08T03:22:00.286Z,1012.92
2022-08-08T03:27:04.323Z,1012.89
2022-08-08T03:32:08.835Z,1013.00
2022-08-08T03:37:58.875Z,1012.93
2022-08-08T03:42:28.779Z,1012.98
2022-08-08T03:47:20.935Z,1013.00
2022-08-08T03:52:25.130Z,1013.08
2022-08-08T03:58:30.142Z,1013.12
2022-08-08T04:02:47.732Z,1013.28
2022-08-08T04:07:37.577Z,1013.27
2022-08-08T04:12:41.799Z,1013.34
2022-08-08T04:17:58.947Z,1013.35
2022-08-08T04:22:51.393Z,1013.39
2022-08-08T04:28:34.322Z,1013.39
2022-08-08T04:32:58.396Z,1013.48
2022-08-08T04:38:02.549Z,1013.41
2022-08-08T04:43:08.913Z,1013.46
2022-08-08T04:48:10.915Z,1013.51
2022-08-08T04:53:14.145Z,1013.54
2022-08-08T04:58:17.576Z,1013.57
2022-08-08T05:04:09.808Z,1013.51
2022-08-08T05:08:26.998Z,1013.64
2022-08-08T05:13:27.922Z,1013.56
2022-08-08T05:18:32.034Z,1013.57
2022-08-08T05:23:41.333Z,1013.55
2022-08-08T05:28:56.410Z,1013.61
2022-08-08T05:33:49.555Z,1013.49
2022-08-08T05:38:48.702Z,1013.52
2022-08-08T05:44:03.153Z,1013.47
2022-08-08T05:48:57.016Z,1013.50
2022-08-08T05:54:27.539Z,1013.43
2022-08-08T05:59:05.344Z,1013.47
2022-08-08T06:04:13.738Z,1013.56
2022-08-08T06:10:00.311Z,1013.57
2022-08-08T06:14:18.102Z,1013.52
2022-08-08T06:19:24.047Z,1013.67
2022-08-08T06:24:30.465Z,1013.72
2022-08-08T06:29:59.264Z,1013.80
2022-08-08T06:34:34.451Z,1013.84
2022-08-08T06:39:38.699Z,1013.88
2022-08-08T06:44:42.830Z,1014.02
2022-08-08T06:49:56.148Z,1014.07
2022-08-08T06:54:49.238Z,1014.21
2022-08-08T07:00:10.158Z,1014.21
2022-08-08T07:04:55.737Z,1014.26
2022-08-08T07:10:00.245Z,1014.29
2022-08-08T07:15:02.081Z,1014.36
2022-08-08T07:20:06.264Z,1014.40
2022-08-08T07:25:10.411Z,1014.52
2022-08-08T07:30:19.710Z,1014.50
2022-08-08T07:35:18.742Z,1014.48
2022-08-08T07:40:29.880Z,1014.56
2022-08-08T07:45:34.959Z,1014.60
2022-08-08T07:50:31.205Z,1014.65
2022-08-08T07:55:36.390Z,1014.74
2022-08-08T08:00:39.605Z,1014.77
2022-08-08T08:05:43.706Z,1014.79
2022-08-08T08:10:47.871Z,1014.90
2022-08-08T08:15:52.024Z,1014.81
2022-08-08T08:20:56.206Z,1014.90
2022-08-08T08:26:00.323Z,1014.87
2022-08-08T08:31:04.606Z,1014.93
2022-08-08T08:36:17.921Z,1014.88
2022-08-08T08:41:13.310Z,1014.79
2022-08-08T08:46:17.759Z,1014.74
2022-08-08T08:51:21.105Z,1014.78
2022-08-08T08:56:23.940Z,1014.87
2022-08-08T09:01:27.550Z,1014.77
2022-08-08T09:06:34.094Z,1014.81
2022-08-08T09:11:33.972Z,1014.88
2022-08-08T09:16:36.237Z,1014.77
2022-08-08T09:21:56.280Z,1015.03
2022-08-08T09:26:47.152Z,1015.27
2022-08-08T09:31:56.773Z,1015.36
2022-08-08T09:37:58.080Z,1015.48
2022-08-08T09:42:20.604Z,1015.45
2022-08-08T09:47:05.645Z,1015.44
2022-08-08T09:52:08.005Z,1015.44
2022-08-08T09:57:16.047Z,1015.44
2022-08-08T10:02:13.001Z,1015.37
2022-08-08T10:07:16.347Z,1015.38
2022-08-08T10:12:27.157Z,1015.44
2022-08-08T10:17:56.507Z,1015.33
2022-08-08T10:22:28.792Z,1015.29
2022-08-08T10:27:34.178Z,1015.31
2022-08-08T10:32:37.771Z,1015.24
2022-08-08T10:37:40.885Z,1015.19
2022-08-08T10:42:45.282Z,1015.18
2022-08-08T10:47:55.505Z,1015.20
2022-08-08T10:52:53.384Z,1015.25
2022-08-08T10:57:57.522Z,1015.26
2022-08-08T11:02:59.821Z,1015.19
2022-08-08T11:08:31.099Z,1015.19
2022-08-08T11:13:29.593Z,1015.14
2022-08-08T11:18:10.414Z,1015.13
2022-08-08T11:23:14.580Z,1015.02
2022-08-08T11:28:18.940Z,1015.06
2022-08-08T11:33:22.861Z,1014.95
2022-08-08T11:38:36.039Z,1014.95
2022-08-08T11:43:38.969Z,1014.94
2022-08-08T11:48:35.353Z,1014.89
2022-08-08T11:58:43.633Z,1014.83
2022-08-08T12:03:47.961Z,1014.81
2022-08-08T12:08:51.999Z,1014.77
2022-08-08T12:14:03.907Z,1014.73
2022-08-08T12:19:00.292Z,1014.78
2022-08-08T12:24:04.470Z,1014.67
2022-08-08T12:29:08.594Z,1014.62
2022-08-08T12:34:12.748Z,1014.60
2022-08-08T12:39:16.944Z,1014.64
2022-08-08T12:44:32.011Z,1014.62
2022-08-08T12:49:45.036Z,1014.69
2022-08-08T12:54:36.552Z,1014.55
2022-08-08T12:59:44.533Z,1014.53
2022-08-08T13:04:35.819Z,1014.65
2022-08-08T13:09:43.038Z,1014.51
2022-08-08T13:14:52.907Z,1014.52
2022-08-08T13:19:50.260Z,1014.43
2022-08-08T13:24:50.722Z,1014.46
2022-08-08T13:29:54.736Z,1014.36
2022-08-08T13:34:59.187Z,1014.25
2022-08-08T13:40:03.093Z,1014.30
2022-08-08T13:45:07.199Z,1014.30
2022-08-08T13:50:34.609Z,1014.34
2022-08-08T13:55:29.004Z,1014.25
2022-08-08T14:00:19.734Z,1014.15
2022-08-08T14:05:27.339Z,1014.29
2022-08-08T14:10:33.396Z,1014.33
2022-08-08T14:15:39.562Z,1014.34
2022-08-08T14:20:57.537Z,1014.37
2022-08-08T14:25:40.475Z,1014.32
2022-08-08T14:30:47.666Z,1014.29
2022-08-08T14:35:49.652Z,1014.26
2022-08-08T14:40:52.932Z,1014.28
2022-08-08T14:46:02.872Z,1014.30
2022-08-08T14:51:01.282Z,1014.23
2022-08-08T14:56:05.449Z,1014.26
2022-08-08T15:01:08.137Z,1014.15
2022-08-08T15:06:11.841Z,1014.16
2022-08-08T15:11:20.637Z,1014.13
2022-08-08T15:16:18.280Z,1014.19
2022-08-08T15:21:22.477Z,1014.22
2022-08-08T15:26:28.855Z,1014.12
2022-08-08T15:31:55.926Z,1014.11
2022-08-08T15:36:34.970Z,1014.13
2022-08-08T15:41:44.058Z,1014.16
2022-08-08T15:46:45.424Z,1014.18
2022-08-08T15:51:47.395Z,1014.16
2022-08-08T15:56:51.572Z,1014.15
2022-08-08T16:02:00.532Z,1013.97
2022-08-08T16:06:59.878Z,1013.87
2022-08-08T16:13:05.264Z,1013.93
2022-08-08T16:17:08.240Z,1013.83
2022-08-08T16:22:30.448Z,1013.91
2022-08-08T16:27:17.975Z,1013.86
2022-08-08T16:32:25.339Z,1013.78
2022-08-08T16:37:24.980Z,1013.74
2022-08-08T16:42:29.356Z,1013.78
2022-08-08T16:47:42.380Z,1013.78
2022-08-08T16:55:03.423Z,1013.79
2022-08-08T16:58:14.412Z,1013.81
2022-08-08T17:02:43.976Z,1013.86
2022-08-08T17:07:51.190Z,1013.87
2022-08-08T17:12:53.156Z,1013.90
2022-08-08T17:18:02.399Z,1013.82
2022-08-08T17:23:16.379Z,1013.92
2022-08-08T17:28:04.542Z,1014.00
2022-08-08T17:34:37.498Z,1014.05
2022-08-08T17:38:12.863Z,1014.09
2022-08-08T17:43:17.006Z,1014.24
2022-08-08T17:48:29.333Z,1014.27
2022-08-08T17:53:42.753Z,1014.23
2022-08-08T17:58:29.507Z,1014.30
2022-08-08T18:03:33.697Z,1014.35
2022-08-08T18:08:41.799Z,1014.28
2022-08-08T18:13:43.969Z,1014.35
2022-08-08T18:18:53.860Z,1014.33
2022-08-08T18:23:55.774Z,1014.42
2022-08-08T18:28:55.351Z,1014.42
2022-08-08T18:34:11.221Z,1014.42
2022-08-08T18:39:02.876Z,1014.45
2022-08-08T18:44:05.021Z,1014.45
2022-08-08T18:49:11.217Z,1014.56
2022-08-08T18:54:21.864Z,1014.66
2022-08-08T18:59:17.501Z,1014.73
2022-08-08T19:04:21.753Z,1014.84
2022-08-08T19:09:48.931Z,1014.93
2022-08-08T19:14:30.010Z,1015.07
2022-08-08T19:19:34.171Z,1015.13
2022-08-08T19:24:48.788Z,1015.20
2022-08-08T19:29:45.926Z,1015.27
2022-08-08T19:34:46.647Z,1015.21
2022-08-08T19:39:51.199Z,1015.32
2022-08-08T19:44:54.975Z,1015.37
2022-08-08T19:49:59.576Z,1015.42
2022-08-08T19:55:05.130Z,1015.42
2022-08-08T20:00:11.244Z,1015.44
2022-08-08T20:05:12.147Z,1015.49
2022-08-08T20:10:15.743Z,1015.49
2022-08-08T20:15:21.842Z,1015.54
2022-08-08T20:20:24.070Z,1015.53
2022-08-08T20:25:29.821Z,1015.59
2022-08-08T20:30:52.989Z,1015.59
2022-08-08T20:35:58.108Z,1015.65
2022-08-08T20:40:39.259Z,1015.65
2022-08-08T20:45:58.203Z,1015.60
2022-08-08T20:50:45.247Z,1015.73
2022-08-08T20:55:51.129Z,1015.67
2022-08-08T21:00:53.550Z,1015.72
2022-08-08T21:05:58.702Z,1015.79
2022-08-08T21:11:01.885Z,1015.79
2022-08-08T21:16:18.071Z,1015.79
2022-08-08T21:21:10.204Z,1015.90
2022-08-08T21:26:21.006Z,1015.86
2022-08-08T21:31:21.953Z,1015.81
2022-08-08T21:36:28.431Z,1015.83
2022-08-08T21:41:38.636Z,1015.81
2022-08-08T21:48:07.424Z,1015.85
2022-08-08T21:54:23.306Z,1015.86
2022-08-08T21:56:43.474Z,1015.80
2022-08-08T22:01:43.528Z,1015.81
2022-08-08T22:06:47.628Z,1015.88
2022-08-08T22:12:04.556Z,1015.93
2022-08-08T22:16:55.983Z,1015.97
2022-08-08T22:22:00.122Z,1015.96
2022-08-08T22:27:03.288Z,1016.06
2022-08-08T22:32:06.533Z,1016.06
2022-08-08T22:37:27.616Z,1016.08
2022-08-08T22:42:27.056Z,1016.13
2022-08-08T22:47:19.025Z,1016.06
2022-08-08T22:52:26.108Z,1016.11
2022-08-08T22:57:27.335Z,1016.06
2022-08-08T23:02:31.666Z,1015.94
2022-08-08T23:07:56.837Z,1015.84
2022-08-08T23:12:41.437Z,1015.83
2022-08-08T23:17:54.174Z,1015.87
2022-08-08T23:22:48.151Z,1015.77
2022-08-08T23:27:54.434Z,1015.74
2022-08-08T23:32:56.435Z,1015.68
2022-08-08T23:38:02.839Z,1015.54
2022-08-08T23:43:04.796Z,1015.46
2022-08-08T23:49:04.473Z,1015.44
2022-08-08T23:53:14.409Z,1015.28
2022-08-08T23:58:31.820Z,1015.32
